Time;durP1;ratioP1;P1;durP2;ratioP2;P2;SDS_P1;SDS_P2;PMS_P1;PMS_P2;Temp;Humidity;BMP_temperature;BMP_pressure;BME280_temperature;BME280_humidity;BME280_pressure;Samples;Min_cycle;Max_cycle;Signal;HPM_P1;HPM_P2
2022/12/15 00:40:04;;;;;;;16.50;10.20;;;;;;;-1.32;64.48;99191.48;1726989;83;21053;-39
2022/12/15 00:42:31;;;;;;;17.53;11.20;;;;;;;-1.32;64.45;99195.48;1727456;83;21509;-40
2022/12/15 00:44:58;;;;;;;17.02;10.88;;;;;;;-1.29;64.34;99206.60;1705305;83;21744;-39
2022/12/15 00:47:25;;;;;;;15.05;10.78;;;;;;;-1.31;64.30;99187.73;1697411;84;20987;-39
2022/12/15 01:22:41;;;;;;;14.03;9.50;;;;;;;-1.41;66.61;99149.33;1670492;85;21051;-40
2022/12/15 01:25:09;;;;;;;13.30;9.28;;;;;;;-1.37;66.52;99155.66;1670620;85;21991;-39
2022/12/15 01:27:35;;;;;;;15.10;9.35;;;;;;;-1.39;66.85;99134.41;1670475;85;21008;-39
2022/12/15 01:30:05;;;;;;;13.10;9.43;;;;;;;-1.40;66.82;99127.50;1670702;85;21016;-40
2022/12/15 01:32:32;;;;;;;12.25;9.05;;;;;;;-1.46;66.91;99136.10;1670614;85;21043;-39
2022/12/15 01:34:58;;;;;;;12.45;8.43;;;;;;;-1.47;67.01;99119.89;1665543;85;21107;-39
2022/12/15 01:37:25;;;;;;;14.83;9.28;;;;;;;-1.47;66.99;99101.81;1670702;85;21793;-40
2022/12/15 01:42:37;;;;;;;13.32;8.95;;;;;;;-1.47;67.19;99103.94;1670744;85;20959;-39
2022/12/15 01:45:32;;;;;;;12.80;9.25;;;;;;;-1.46;67.21;99104.73;1691533;83;21732;-39
2022/12/15 01:48:07;;;;;;;14.83;9.55;;;;;;;-1.44;67.62;99094.05;1711792;83;20902;-39
2022/12/15 01:50:39;;;;;;;11.57;8.63;;;;;;;-1.47;67.87;99084.00;1711787;83;21136;-39
2022/12/15 01:53:05;;;;;;;12.63;8.93;;;;;;;-1.47;68.65;99081.34;1711681;83;21005;-40
2022/12/15 01:55:32;;;;;;;16.95;8.85;;;;;;;-1.46;68.86;99075.49;1711458;83;20984;-39
2022/12/15 01:58:03;;;;;;;12.93;8.78;;;;;;;-1.48;69.40;99067.80;1711660;83;21013;-39
2022/12/15 02:00:29;;;;;;;12.60;9.08;;;;;;;-1.50;70.19;99053.98;1711634;83;21542;-39
2022/12/15 02:02:56;;;;;;;10.60;8.50;;;;;;;-1.52;70.96;99066.80;1711402;83;23161;-39
2022/12/15 02:05:23;;;;;;;12.78;9.05;;;;;;;-1.55;72.01;99083.30;1685558;83;20941;-39
2022/12/15 02:07:50;;;;;;;11.18;8.50;;;;;;;-1.54;72.75;99074.25;1711659;83;20992;-39
2022/12/15 02:10:16;;;;;;;12.90;9.03;;;;;;;-1.58;72.52;99091.85;1711587;83;20985;-39
2022/12/15 02:13:04;;;;;;;11.30;7.78;;;;;;;-1.58;72.12;99107.80;1711672;83;21562;-39
2022/12/15 02:15:40;;;;;;;13.35;8.70;;;;;;;-1.60;72.42;99103.86;1711560;83;23205;-39
2022/12/15 06:31:48;;;;;;;14.47;11.00;;;;;;;-0.99;86.99;98817.24;1852385;76;22643;-38
2022/12/15 06:34:16;;;;;;;13.93;10.23;;;;;;;-0.91;84.94;98808.55;1812893;78;21501;-38
2022/12/15 06:36:42;;;;;;;15.78;10.50;;;;;;;-0.91;85.15;98803.77;1806080;79;21122;-38
2022/12/15 06:39:12;;;;;;;15.30;11.28;;;;;;;-0.92;84.26;98804.87;1805973;79;21876;-38
2022/12/15 06:41:38;;;;;;;11.55;8.55;;;;;;;-0.85;83.93;98802.59;1806046;79;20963;-39
2022/12/15 06:44:05;;;;;;;15.88;10.80;;;;;;;-0.85;83.58;98813.23;1806088;79;21536;-38
2022/12/15 06:46:33;;;;;;;16.12;10.88;;;;;;;-0.82;83.26;98815.28;1806039;79;20962;-38
2022/12/15 06:49:00;;;;;;;11.03;8.20;;;;;;;-0.81;83.11;98803.56;1806252;79;21114;-38
2022/12/15 06:51:27;;;;;;;14.90;10.45;;;;;;;-0.76;83.39;98813.31;1810363;78;20976;-38
2022/12/15 06:53:55;;;;;;;14.58;10.45;;;;;;;-0.72;83.30;98818.28;1826351;78;20941;-38
2022/12/15 06:56:27;;;;;;;14.65;11.10;;;;;;;-0.70;82.91;98806.27;1826307;78;20989;-38
2022/12/15 06:58:54;;;;;;;14.75;10.95;;;;;;;-0.71;82.82;98799.36;1826344;78;21017;-38
2022/12/15 07:01:22;;;;;;;19.23;11.48;;;;;;;-0.70;82.71;98800.16;1826263;78;21225;-38
2022/12/15 07:03:49;;;;;;;14.73;10.63;;;;;;;-0.75;82.74;98789.07;1826360;78;21499;-38
2022/12/15 07:06:16;;;;;;;14.03;10.63;;;;;;;-0.72;82.57;98787.13;1826523;78;21007;-38
2022/12/15 07:08:46;;;;;;;14.13;10.68;;;;;;;-0.71;82.35;98790.05;1826249;78;20964;-38
2022/12/15 07:11:12;;;;;;;14.18;10.80;;;;;;;-0.73;82.36;98797.56;1826414;78;21052;-38
2022/12/15 07:13:39;;;;;;;14.43;10.60;;;;;;;-0.68;82.39;98792.66;1826364;78;21129;-38
2022/12/15 07:16:07;;;;;;;16.15;10.60;;;;;;;-0.67;82.41;98788.36;1826176;78;21000;-38
2022/12/15 07:18:33;;;;;;;13.83;10.55;;;;;;;-0.65;82.27;98795.52;1826410;78;20968;-38
2022/12/15 07:21:05;;;;;;;16.17;11.12;;;;;;;-0.64;82.33;98790.44;1826318;78;21012;-38
2022/12/15 07:23:33;;;;;;;15.30;10.13;;;;;;;-0.59;82.13;98795.66;1826428;78;21028;-38
2022/12/15 07:26:07;;;;;;;13.05;9.80;;;;;;;-0.56;82.18;98791.59;1826113;78;23133;-38
2022/12/15 07:28:35;;;;;;;13.62;10.00;;;;;;;-0.49;81.99;98811.41;1826337;78;21062;-38
2022/12/15 07:31:07;;;;;;;12.82;9.33;;;;;;;-0.47;82.09;98795.90;1828280;77;20992;-38
2022/12/15 07:33:35;;;;;;;12.65;9.63;;;;;;;-0.35;81.85;98806.03;1829865;78;21000;-38
2022/12/15 07:36:02;;;;;;;15.60;10.45;;;;;;;-0.31;81.88;98804.87;1829754;77;21079;-38
2022/12/15 07:38:30;;;;;;;13.93;10.13;;;;;;;-0.29;81.87;98820.03;1829887;78;21140;-38
2022/12/15 07:41:02;;;;;;;14.40;10.20;;;;;;;-0.28;82.02;98818.38;1829514;78;21479;-38
2022/12/15 07:43:29;;;;;;;13.48;10.18;;;;;;;-0.23;82.00;98828.13;1829628;77;20976;-38
2022/12/15 07:45:56;;;;;;;14.03;9.80;;;;;;;-0.27;82.01;98824.48;1829241;78;21002;-38
2022/12/15 07:48:23;;;;;;;12.88;10.03;;;;;;;-0.26;82.16;98829.52;1829169;78;21427;-38
2022/12/15 07:50:55;;;;;;;12.78;9.20;;;;;;;-0.20;82.09;98822.21;1829208;77;21829;-38
2022/12/15 07:53:18;;;;;;;10.48;8.43;;;;;;;-0.18;82.19;98824.02;1828561;77;21464;-38
2022/12/15 07:55:55;;;;;;;11.10;8.68;;;;;;;-0.09;82.08;98826.98;1829094;78;20969;-38
2022/12/15 07:58:22;;;;;;;12.88;8.95;;;;;;;0.00;81.95;98825.17;1829203;77;20916;-38
2022/12/15 08:00:49;;;;;;;11.35;9.03;;;;;;;0.03;81.92;98831.78;1829222;77;21055;-38
2022/12/15 08:03:15;;;;;;;10.13;8.43;;;;;;;0.06;81.53;98837.83;1829294;78;21238;-38
2022/12/15 08:05:42;;;;;;;11.43;8.30;;;;;;;0.05;81.26;98849.57;1829263;77;20991;-38
2022/12/15 08:08:10;;;;;;;12.70;9.03;;;;;;;0.07;81.20;98844.73;1829184;78;20948;-38
2022/12/15 08:10:39;;;;;;;10.82;8.23;;;;;;;0.07;81.25;98839.41;1829212;78;21441;-38
2022/12/15 08:13:06;;;;;;;11.43;8.78;;;;;;;0.07;81.24;98842.08;1829429;78;21466;-38
2022/12/15 08:15:38;;;;;;;11.43;8.18;;;;;;;0.08;81.44;98840.99;1829177;78;21211;-38
2022/12/15 08:18:05;;;;;;;8.85;7.10;;;;;;;0.11;81.54;98841.70;1829356;78;20913;-38
2022/12/15 08:20:32;;;;;;;8.98;7.37;;;;;;;0.21;81.52;98848.13;1829073;78;21009;-38
2022/12/15 08:22:59;;;;;;;10.00;7.53;;;;;;;0.33;81.31;98843.59;1829022;78;20976;-38
2022/12/15 08:25:27;;;;;;;11.28;8.68;;;;;;;0.35;81.46;98850.18;1829141;77;21009;-38
2022/12/15 08:27:56;;;;;;;9.70;7.50;;;;;;;0.39;81.43;98851.14;1829220;77;21189;-38
2022/12/15 08:30:23;;;;;;;9.08;6.75;;;;;;;0.43;81.46;98854.00;1829338;78;21039;-38
2022/12/15 08:32:50;;;;;;;10.48;7.35;;;;;;;0.53;81.29;98858.30;1831825;77;20921;-38
2022/12/15 08:35:17;;;;;;;9.33;7.58;;;;;;;0.57;81.13;98853.92;1831639;78;21370;-38
2022/12/15 08:37:44;;;;;;;10.75;7.65;;;;;;;0.54;81.36;98855.84;1831744;78;21013;-38
2022/12/15 08:40:12;;;;;;;10.28;7.70;;;;;;;0.52;81.73;98864.72;1831820;78;21131;-38
2022/12/15 08:42:40;;;;;;;9.13;6.80;;;;;;;0.54;81.80;98854.52;1831855;77;21007;-38
2022/12/15 08:45:10;;;;;;;9.45;7.60;;;;;;;0.60;81.96;98856.75;1831738;77;20956;-38
2022/12/15 08:47:36;;;;;;;9.28;7.05;;;;;;;0.65;82.03;98858.50;1831928;77;20916;-38
2022/12/15 08:50:06;;;;;;;9.58;7.40;;;;;;;0.65;82.21;98855.84;1831808;77;21556;-38
2022/12/15 08:52:33;;;;;;;10.78;7.35;;;;;;;0.64;82.33;98864.38;1831979;78;21274;-39
2022/12/15 08:55:00;;;;;;;8.15;6.75;;;;;;;0.62;82.58;98857.80;1831664;78;21525;-39
2022/12/15 08:57:27;;;;;;;8.83;7.17;;;;;;;0.66;82.62;98860.09;1831748;77;20877;-39
2022/12/15 08:59:54;;;;;;;10.68;7.85;;;;;;;0.69;82.67;98868.80;1831686;78;20999;-39
2022/12/15 09:02:21;;;;;;;9.78;7.70;;;;;;;0.67;82.89;98868.33;1831856;78;21008;-39
2022/12/15 09:04:49;;;;;;;9.90;7.15;;;;;;;0.66;83.20;98884.09;1831877;78;21506;-39
2022/12/15 09:07:16;;;;;;;10.55;6.92;;;;;;;0.72;83.09;98870.88;1831669;78;21515;-39
2022/12/15 09:09:43;;;;;;;11.33;8.13;;;;;;;0.78;83.04;98865.08;1831691;78;20996;-39
2022/12/15 09:12:11;;;;;;;12.65;8.25;;;;;;;0.80;83.09;98866.91;1831771;78;20936;-39
2022/12/15 09:14:38;;;;;;;9.95;7.62;;;;;;;0.80;83.17;98870.11;1831792;78;21035;-40
2022/12/15 09:17:04;;;;;;;9.40;7.22;;;;;;;0.82;83.21;98874.61;1831608;78;21121;-39
2022/12/15 09:19:31;;;;;;;10.18;7.95;;;;;;;0.85;83.09;98865.98;1831661;78;21509;-39
2022/12/15 09:21:58;;;;;;;9.65;8.03;;;;;;;0.91;83.05;98867.43;1831752;77;20988;-39
2022/12/15 09:24:25;;;;;;;11.25;8.00;;;;;;;0.92;83.03;98872.22;1831741;77;20913;-39
2022/12/15 09:26:52;;;;;;;11.10;8.28;;;;;;;0.93;83.07;98861.77;1831749;78;21525;-39
2022/12/15 09:29:19;;;;;;;8.93;7.53;;;;;;;0.96;83.02;98871.30;1831740;78;21133;-39
2022/12/15 09:31:46;;;;;;;9.73;7.70;;;;;;;0.99;82.94;98869.34;1828532;77;21035;-39
2022/12/15 09:34:18;;;;;;;9.53;7.85;;;;;;;1.06;82.71;98873.70;1832080;77;21486;-39
2022/12/15 09:36:42;;;;;;;9.98;7.87;;;;;;;1.06;82.85;98872.91;1831176;77;21577;-39
2022/12/15 09:39:10;;;;;;;12.00;7.35;;;;;;;1.05;83.03;98861.44;1831924;77;20992;-39
2022/12/15 09:41:39;;;;;;;8.58;6.90;;;;;;;1.07;83.02;98872.58;1831711;77;23125;-39
2022/12/15 09:44:16;;;;;;;10.28;7.40;;;;;;;1.11;82.95;98876.23;1831861;77;20981;-39
2022/12/15 09:47:15;;;;;;;10.25;7.50;;;;;;;1.17;82.93;98861.62;1831340;77;20925;-40
2022/12/15 09:49:56;;;;;;;11.18;8.30;;;;;;;1.18;83.19;98861.87;1792922;80;21561;-39
2022/12/15 09:52:51;;;;;;;8.85;6.67;;;;;;;1.17;83.29;98868.84;1795282;80;21502;-39
2022/12/15 09:55:24;;;;;;;8.30;6.47;;;;;;;1.16;83.49;98868.62;1795602;79;21119;-39
2022/12/15 09:57:55;;;;;;;9.03;7.42;;;;;;;1.18;83.54;98861.87;1795267;80;21485;-39
2022/12/15 10:00:32;;;;;;;8.18;7.00;;;;;;;1.17;83.78;98861.62;1795451;80;21549;-39
2022/12/15 10:03:24;;;;;;;8.23;6.20;;;;;;;1.16;83.86;98865.38;1795424;79;21512;-39
2022/12/15 10:06:05;;;;;;;7.35;5.83;;;;;;;1.20;83.95;98869.03;1795468;80;21568;-39
2022/12/15 10:08:54;;;;;;;7.33;6.20;;;;;;;1.25;83.98;98865.43;1795455;80;21228;-39
2022/12/15 10:11:41;;;;;;;9.10;6.55;;;;;;;1.31;83.97;98854.28;1795220;80;20944;-39
2022/12/15 14:47:17;;;;;;;8.88;7.03;;;;;;;1.51;97.18;99003.05;1789174;79;22679;-38
2022/12/15 14:49:44;;;;;;;11.70;8.15;;;;;;;1.58;95.49;99013.54;1754526;81;21015;-38
2022/12/15 14:52:28;;;;;;;9.20;7.17;;;;;;;1.52;96.18;99008.63;1760350;81;21130;-38
2022/12/15 14:54:58;;;;;;;9.28;6.92;;;;;;;1.51;96.33;99021.20;1760032;81;21466;-38
2022/12/15 14:57:43;;;;;;;9.30;7.28;;;;;;;1.56;95.58;99018.94;1759939;81;20925;-38
2022/12/15 15:00:31;;;;;;;10.15;8.23;;;;;;;1.59;95.24;99019.13;1760294;81;21148;-38
2022/12/15 15:03:22;;;;;;;7.25;5.72;;;;;;;1.55;95.17;99026.16;1760348;81;21520;-38
2022/12/15 15:05:58;;;;;;;8.73;6.92;;;;;;;1.56;94.85;99030.41;1759795;81;23158;-38
2022/12/15 15:08:33;;;;;;;10.15;7.78;;;;;;;1.60;94.09;99030.03;1760097;81;21525;-38
2022/12/15 15:11:04;;;;;;;9.38;7.72;;;;;;;1.61;93.69;99032.16;1760011;81;21011;-38
2022/12/15 15:13:38;;;;;;;11.43;8.38;;;;;;;1.58;93.70;99033.58;1753081;81;20963;-39
2022/12/15 15:16:07;;;;;;;11.30;7.70;;;;;;;1.58;93.05;99028.23;1760101;81;21481;-38
2022/12/15 15:18:34;;;;;;;12.43;8.70;;;;;;;1.63;92.72;99033.44;1760509;81;21635;-38
2022/12/15 15:21:04;;;;;;;11.63;8.65;;;;;;;1.68;92.37;99040.53;1759905;81;20963;-38
2022/12/15 15:23:30;;;;;;;12.05;9.00;;;;;;;1.68;92.28;99041.87;1760024;81;21019;-39
2022/12/15 15:26:09;;;;;;;12.00;8.15;;;;;;;1.66;92.01;99044.05;1759984;81;20959;-38
2022/12/15 15:28:38;;;;;;;10.98;8.60;;;;;;;1.63;91.85;99053.48;1760050;81;21031;-38
2022/12/15 15:31:26;;;;;;;12.65;8.60;;;;;;;1.66;91.34;99047.52;1760278;81;21164;-38
2022/12/15 15:33:58;;;;;;;14.10;8.60;;;;;;;1.65;91.07;99059.83;1759886;81;20963;-38
2022/12/15 15:36:38;;;;;;;13.95;8.68;;;;;;;1.59;91.25;99053.07;1760346;81;20988;-39
2022/12/15 15:39:18;;;;;;;22.25;15.88;;;;;;;1.56;91.34;99057.67;1760155;81;20983;-38
2022/12/15 15:41:44;;;;;;;11.80;8.50;;;;;;;1.61;91.16;99054.33;1760189;81;21505;-39
2022/12/15 15:44:13;;;;;;;12.40;9.23;;;;;;;1.69;91.01;99058.15;1760222;81;21524;-38
2022/12/15 15:46:48;;;;;;;20.12;12.75;;;;;;;1.69;90.95;99069.59;1759624;81;20991;-39
2022/12/15 15:49:18;;;;;;;14.40;9.65;;;;;;;1.70;90.87;99075.73;1758702;81;21006;-40
2022/12/15 15:51:47;;;;;;;12.53;9.48;;;;;;;1.66;90.74;99070.77;1759942;81;20885;-40
2022/12/15 15:54:16;;;;;;;14.00;8.93;;;;;;;1.72;90.49;99070.34;1732298;81;21529;-40
2022/12/15 15:56:42;;;;;;;13.98;9.78;;;;;;;1.74;90.15;99064.70;1760114;81;21224;-40
2022/12/15 15:59:15;;;;;;;16.80;10.68;;;;;;;1.71;90.31;99065.30;1759755;81;21007;-39
2022/12/15 16:01:45;;;;;;;15.93;11.25;;;;;;;1.67;90.45;99081.16;1759978;81;20972;-39
2022/12/15 16:04:11;;;;;;;13.38;9.28;;;;;;;1.66;90.42;99076.91;1759571;81;21011;-39
2022/12/15 16:06:38;;;;;;;14.73;9.35;;;;;;;1.69;90.17;99082.95;1759651;81;21485;-40
2022/12/15 16:09:06;;;;;;;15.23;10.20;;;;;;;1.72;90.09;99078.90;1759558;81;23159;-39
2022/12/15 16:11:34;;;;;;;15.55;10.68;;;;;;;1.69;90.17;99074.19;1759398;81;20983;-39
2022/12/15 16:14:02;;;;;;;15.35;9.50;;;;;;;1.67;90.24;99083.04;1759523;81;21007;-40
2022/12/15 16:16:31;;;;;;;15.78;10.43;;;;;;;1.67;90.11;99084.38;1759389;81;20952;-40
2022/12/15 16:18:57;;;;;;;16.10;11.30;;;;;;;1.69;89.94;99082.20;1759470;81;21063;-39
2022/12/15 16:21:26;;;;;;;13.15;10.15;;;;;;;1.68;89.99;99093.43;1759436;81;21181;-39
2022/12/15 16:23:53;;;;;;;18.65;12.80;;;;;;;1.68;90.13;99096.64;1759311;81;21006;-40
2022/12/15 16:26:27;;;;;;;18.55;11.90;;;;;;;1.66;90.14;99095.61;1759448;81;20928;-40
2022/12/15 16:28:54;;;;;;;18.32;13.30;;;;;;;1.72;89.88;99106.95;1759515;81;21032;-39
2022/12/15 16:31:31;;;;;;;16.80;10.90;;;;;;;1.76;89.83;99103.91;1759428;81;21484;-39
2022/12/15 16:33:58;;;;;;;18.00;11.05;;;;;;;1.74;89.82;99110.89;1759288;81;21248;-39
2022/12/15 16:36:24;;;;;;;16.80;11.43;;;;;;;1.73;89.85;99113.34;1759443;81;20968;-39
2022/12/15 16:38:52;;;;;;;14.38;10.25;;;;;;;1.75;89.69;99113.02;1759430;81;21022;-39
2022/12/15 16:41:22;;;;;;;18.65;11.18;;;;;;;1.79;89.41;99114.00;1759900;81;21023;-40
2022/12/15 16:43:49;;;;;;;17.75;12.60;;;;;;;1.80;89.38;99114.22;1759392;81;21016;-39
2022/12/15 16:46:15;;;;;;;17.20;11.35;;;;;;;1.75;89.43;99111.13;1759440;81;21130;-39
2022/12/15 16:48:42;;;;;;;15.32;10.70;;;;;;;1.72;89.51;99124.33;1759482;81;20932;-40
2022/12/15 16:51:29;;;;;;;19.20;12.58;;;;;;;1.72;89.42;99127.80;1759643;81;20925;-39
2022/12/15 16:53:56;;;;;;;20.62;14.03;;;;;;;1.77;89.42;99130.88;1759262;81;21031;-39
2022/12/15 16:56:23;;;;;;;20.88;12.80;;;;;;;1.77;89.46;99138.90;1759613;81;20976;-39
2022/12/15 16:58:49;;;;;;;15.85;10.65;;;;;;;1.77;89.51;99136.77;1759578;81;21253;-39
2022/12/15 17:01:16;;;;;;;19.87;11.93;;;;;;;1.77;89.42;99124.74;1759562;81;20881;-39
2022/12/15 17:03:42;;;;;;;18.90;10.95;;;;;;;1.81;89.20;99127.83;1759581;81;21478;-39
2022/12/15 17:06:10;;;;;;;19.32;12.90;;;;;;;1.87;88.90;99124.48;1759440;81;20881;-40
2022/12/15 17:08:46;;;;;;;23.70;13.05;;;;;;;1.84;89.04;99131.21;1759375;81;21079;-40
2022/12/15 17:11:17;;;;;;;19.75;12.68;;;;;;;1.80;89.17;99135.59;1759421;81;21276;-39
2022/12/15 17:13:46;;;;;;;21.35;15.40;;;;;;;1.78;89.38;99136.47;1759202;81;20991;-39
2022/12/15 17:16:14;;;;;;;20.05;12.05;;;;;;;1.83;89.11;99140.35;1759519;81;20964;-39
2022/12/15 17:18:42;;;;;;;21.37;14.03;;;;;;;1.90;88.96;99136.67;1759270;81;21024;-40
2022/12/15 17:21:23;;;;;;;24.02;13.93;;;;;;;1.89;89.09;99135.67;1759517;81;20956;-40
2022/12/15 17:23:53;;;;;;;19.40;12.50;;;;;;;1.88;89.07;99134.08;1734854;81;21221;-39
2022/12/15 17:26:22;;;;;;;;;;;;;;;1.90;89.00;99137.22;1762041;81;20955;-40
2022/12/15 17:28:49;;;;;;;19.95;11.80;;;;;;;1.94;88.66;99136.84;1759398;81;20167;-39
2022/12/15 17:31:20;;;;;;;22.17;13.65;;;;;;;1.89;88.85;99133.75;1759728;81;21572;-40
2022/12/15 17:33:47;;;;;;;20.17;12.53;;;;;;;1.90;88.87;99140.69;1759505;81;21068;-40
2022/12/15 17:36:24;;;;;;;23.92;13.18;;;;;;;1.89;88.91;99145.02;1759739;81;21520;-40
2022/12/15 17:38:59;;;;;;;22.20;13.20;;;;;;;1.89;88.85;99145.78;1759398;81;20881;-40
2022/12/15 17:41:26;;;;;;;25.75;14.53;;;;;;;1.97;88.73;99143.72;1759719;81;21454;-40
2022/12/15 17:43:54;;;;;;;23.10;13.95;;;;;;;2.04;88.52;99150.73;1759226;81;21011;-39
2022/12/15 17:46:20;;;;;;;25.57;15.40;;;;;;;2.03;88.47;99151.82;1760251;81;21019;-40
2022/12/15 17:48:47;;;;;;;39.88;23.15;;;;;;;2.00;88.52;99152.45;1762226;81;21134;-40
2022/12/15 17:51:17;;;;;;;80.95;47.60;;;;;;;2.03;88.34;99161.75;1762323;81;20892;-39
2022/12/15 17:53:45;;;;;;;72.87;44.93;;;;;;;2.06;88.00;99162.47;1762594;81;20952;-40
2022/12/15 17:56:14;;;;;;;27.70;17.27;;;;;;;2.09;87.76;99170.66;1762267;81;21007;-40
2022/12/15 17:58:41;;;;;;;30.77;19.12;;;;;;;2.06;87.92;99165.14;1762016;81;21028;-39
2022/12/15 18:01:11;;;;;;;29.32;19.10;;;;;;;2.04;88.07;99169.99;1762359;81;21131;-39
2022/12/15 18:03:37;;;;;;;;;;;;;;;2.06;88.06;99168.61;1765134;81;21520;-40
2022/12/15 18:06:12;;;;;;;21.90;14.13;;;;;;;2.11;87.96;99175.16;1762638;81;20111;-40
2022/12/15 18:08:39;;;;;;;21.30;14.03;;;;;;;2.07;87.79;99170.19;1762201;81;21401;-40
2022/12/15 18:11:05;;;;;;;26.12;17.90;;;;;;;2.07;87.90;99172.08;1762286;81;21048;-40
2022/12/15 18:13:33;;;;;;;29.77;20.17;;;;;;;2.04;87.84;99178.80;1762316;81;21143;-40
